Time;durP1;ratioP1;P1;durP2;ratioP2;P2;SDS_P1;SDS_P2;PMS_P1;PMS_P2;Temp;Humidity;BMP_temperature;BMP_pressure;BME280_temperature;BME280_humidity;BME280_pressure;Samples;Min_cycle;Max_cycle;Signal;HPM_P1;HPM_P2
2023/03/19 00:00:06;;;;;;;;;;;11.90;95.60;12.20;99431.00;;;;349318;27;83303;-91
2023/03/19 00:00:19;;;;;;;;;;;11.90;95.40;12.20;99444.00;;;;348382;27;87869;-91
2023/03/19 00:00:30;;;;;;;;;;;11.90;95.20;12.30;99436.00;;;;347111;28;84033;-91
2023/03/19 00:00:42;;;;;;;;;;;11.90;95.30;12.20;99427.00;;;;345957;28;89538;-91
2023/03/19 00:00:54;;;;;;;;;;;11.90;95.50;12.10;99434.00;;;;347682;28;82419;-92
2023/03/19 00:01:06;;;;;;;;;;;11.90;95.60;12.10;99437.00;;;;347239;28;90677;-91
2023/03/19 00:01:18;;;;;;;;;;;11.80;95.60;12.10;99436.00;;;;346219;28;83304;-91
2023/03/19 00:01:30;;;;;;;;;;;11.80;95.70;12.00;99448.00;;;;345239;28;88415;-91
2023/03/19 00:01:42;;;;;;;;;;;11.80;95.90;12.00;99432.00;;;;346386;28;82502;-91
2023/03/19 00:01:57;;;;;;;;;;;11.80;96.00;12.20;99440.00;;;;347452;28;89666;-91
2023/03/19 00:02:16;;;;;;;;;;;11.80;95.80;12.10;99444.00;;;;345034;28;83401;-91
2023/03/19 00:02:29;;;;;;;;;;;11.80;96.00;12.20;99435.00;;;;346831;28;90739;-91
2023/03/19 00:02:44;;;;;;;;;;;11.80;96.00;12.10;99437.00;;;;349378;27;82401;-91
2023/03/19 00:02:56;;;;;;;;;;;11.80;96.10;12.10;99441.00;;;;347726;28;88394;-89
2023/03/19 00:03:08;;;;;;;;;;;11.80;96.20;12.10;99445.00;;;;350895;27;82614;-90
2023/03/19 00:03:20;;;;;;;;;;;11.80;96.30;12.10;99440.00;;;;348787;28;89640;-91
2023/03/19 00:03:33;;;;;;;;;;;11.80;96.80;12.10;99445.00;;;;348334;28;82346;-89
2023/03/19 00:03:45;;;;;;;;;;;11.70;96.50;12.10;99446.00;;;;348894;28;87345;-88
2023/03/19 00:03:57;;;;;;;;;;;11.70;96.50;12.10;99434.00;;;;349296;28;82383;-89
2023/03/19 00:04:08;;;;;;;;;;;11.80;96.30;12.20;99448.00;;;;341420;28;88383;-91
2023/03/19 00:04:22;;;;;;;;;;;11.80;96.30;12.20;99451.00;;;;339625;28;82686;-92
2023/03/19 00:04:34;;;;;;;;;;;11.80;96.40;12.20;99444.00;;;;341708;28;90646;-91
2023/03/19 00:04:46;;;;;;;;;;;11.80;96.40;12.20;99443.00;;;;342424;28;82593;-89
2023/03/19 00:04:58;;;;;;;;;;;11.80;96.50;12.20;99446.00;;;;340468;28;90384;-89
2023/03/19 00:05:10;;;;;;;;;;;11.80;96.40;12.20;99445.00;;;;340944;28;82520;-91
2023/03/19 00:05:22;;;;;;;;;;;11.70;96.20;12.20;99447.00;;;;342050;28;89331;-89
2023/03/19 00:05:34;;;;;;;;;;;11.80;96.20;12.30;99443.00;;;;342292;28;82249;-90
2023/03/19 00:05:52;;;;;;;;;;;11.80;96.10;12.30;99440.00;;;;340476;28;92187;-91
2023/03/19 00:06:05;;;;;;;;;;;11.80;96.00;12.20;99455.00;;;;342258;28;82540;-92
2023/03/19 00:06:17;;;;;;;;;;;11.80;96.30;12.20;99445.00;;;;340406;28;90502;-89
2023/03/19 00:06:29;;;;;;;;;;;11.70;96.20;12.20;99436.00;;;;339776;28;82421;-90
2023/03/19 00:06:41;;;;;;;;;;;11.80;96.10;12.20;99442.00;;;;339160;28;88330;-90
2023/03/19 00:06:53;;;;;;;;;;;11.70;96.10;12.20;99442.00;;;;338351;28;82218;-89
2023/03/19 00:07:05;;;;;;;;;;;11.80;95.90;12.20;99444.00;;;;339126;28;88461;-90
2023/03/19 00:07:17;;;;;;;;;;;11.80;96.10;12.20;99448.00;;;;339909;28;82434;-90
2023/03/19 00:07:29;;;;;;;;;;;11.70;96.00;12.10;99441.00;;;;340188;28;87337;-90
2023/03/19 00:07:41;;;;;;;;;;;11.80;96.20;12.10;99431.00;;;;339830;28;82325;-89
2023/03/19 00:07:52;;;;;;;;;;;11.70;96.60;12.10;99443.00;;;;340174;28;90479;-89
2023/03/19 00:08:04;;;;;;;;;;;11.70;97.00;12.10;99438.00;;;;340836;28;82569;-90
2023/03/19 00:08:16;;;;;;;;;;;11.70;97.20;12.20;99439.00;;;;343344;27;88401;-89
2023/03/19 00:08:28;;;;;;;;;;;11.70;97.20;12.20;99441.00;;;;340927;28;82550;-89
2023/03/19 00:08:40;;;;;;;;;;;11.70;97.10;12.20;99436.00;;;;338773;28;88601;-91
2023/03/19 00:08:52;;;;;;;;;;;11.70;97.00;12.20;99439.00;;;;340504;28;82394;-90
2023/03/19 00:09:04;;;;;;;;;;;11.70;96.80;12.20;99437.00;;;;338811;28;89058;-91
2023/03/19 00:09:17;;;;;;;;;;;11.70;96.80;12.20;99437.00;;;;338570;28;82519;-92
2023/03/19 00:09:28;;;;;;;;;;;11.70;96.60;12.20;99441.00;;;;337462;28;91494;-91
2023/03/19 00:09:42;;;;;;;;;;;11.70;96.40;12.20;99442.00;;;;339072;28;83422;-91
2023/03/19 00:09:54;;;;;;;;;;;11.70;96.80;12.20;99434.00;;;;337500;28;88411;-91
2023/03/19 00:10:06;;;;;;;;;;;11.70;96.80;12.20;99433.00;;;;339228;28;83405;-91
2023/03/19 00:10:18;;;;;;;;;;;11.70;96.80;12.20;99438.00;;;;340050;28;89041;-91
2023/03/19 00:10:30;;;;;;;;;;;11.70;96.90;12.10;99443.00;;;;338973;28;83512;-92
2023/03/19 00:10:41;;;;;;;;;;;11.70;96.90;12.10;99437.00;;;;337504;28;91401;-91
2023/03/19 00:10:53;;;;;;;;;;;11.70;96.80;12.00;99440.00;;;;338972;28;83567;-92
2023/03/19 00:11:07;;;;;;;;;;;11.70;97.10;12.00;99439.00;;;;337614;28;87611;-91
2023/03/19 00:11:19;;;;;;;;;;;11.70;97.10;12.00;99436.00;;;;337930;28;83478;-91
2023/03/19 00:11:31;;;;;;;;;;;11.70;97.30;12.00;99444.00;;;;337486;28;87609;-91
2023/03/19 00:11:42;;;;;;;;;;;11.60;97.30;12.00;99438.00;;;;337552;28;83359;-92
2023/03/19 00:11:55;;;;;;;;;;;11.70;97.50;12.10;99430.00;;;;336117;28;90447;-91
2023/03/19 00:12:07;;;;;;;;;;;11.60;97.30;12.00;99437.00;;;;337936;28;83123;-91
2023/03/19 00:12:20;;;;;;;;;;;11.60;97.40;12.00;99437.00;;;;338690;28;89165;-92
2023/03/19 00:12:34;;;;;;;;;;;11.60;97.60;12.00;99433.00;;;;339288;28;82316;-92
2023/03/19 00:12:46;;;;;;;;;;;11.60;97.80;12.00;99445.00;;;;338619;28;91098;-92
2023/03/19 00:12:58;;;;;;;;;;;11.60;97.90;11.90;99437.00;;;;339130;28;83384;-91
2023/03/19 00:13:10;;;;;;;;;;;11.60;97.90;11.80;99445.00;;;;345758;28;89764;-91
2023/03/19 00:13:22;;;;;;;;;;;11.60;97.90;11.90;99432.00;;;;346124;28;83366;-92
2023/03/19 00:13:33;;;;;;;;;;;11.60;97.90;12.00;99439.00;;;;344341;28;92035;-91
2023/03/19 00:13:45;;;;;;;;;;;11.60;97.90;12.00;99433.00;;;;336520;28;83431;-91
2023/03/19 00:13:57;;;;;;;;;;;11.60;97.90;11.90;99437.00;;;;336113;28;91399;-91
2023/03/19 00:14:09;;;;;;;;;;;11.60;97.90;12.00;99442.00;;;;339041;28;83476;-91
2023/03/19 00:14:21;;;;;;;;;;;11.60;97.80;12.00;99446.00;;;;338773;28;88293;-90
2023/03/19 00:14:33;;;;;;;;;;;11.60;98.10;12.00;99443.00;;;;339385;28;82297;-91
2023/03/19 00:14:44;;;;;;;;;;;11.60;98.10;12.00;99443.00;;;;338440;28;90432;-91
2023/03/19 00:14:56;;;;;;;;;;;11.60;98.10;12.10;99439.00;;;;339208;28;83273;-91
2023/03/19 00:15:12;;;;;;;;;;;11.60;97.90;12.00;99447.00;;;;337227;28;91926;-91
2023/03/19 00:15:25;;;;;;;;;;;11.60;97.90;12.00;99447.00;;;;340227;28;83410;-91
2023/03/19 00:15:37;;;;;;;;;;;11.60;98.10;12.10;99440.00;;;;338378;28;89681;-91
2023/03/19 00:15:49;;;;;;;;;;;11.60;98.00;12.10;99440.00;;;;340767;28;83533;-91
2023/03/19 00:16:00;;;;;;;;;;;11.60;98.00;12.10;99442.00;;;;339923;28;91061;-92
2023/03/19 00:16:12;;;;;;;;;;;11.60;98.00;12.10;99439.00;;;;337895;28;82603;-91
2023/03/19 00:16:25;;;;;;;;;;;11.60;98.20;12.10;99455.00;;;;335610;28;88833;-91
2023/03/19 00:16:36;;;;;;;;;;;11.60;98.30;12.10;99445.00;;;;339231;28;83367;-92
2023/03/19 00:16:48;;;;;;;;;;;11.60;98.40;12.00;99447.00;;;;338859;28;89932;-91
2023/03/19 00:17:00;;;;;;;;;;;11.60;98.40;12.10;99448.00;;;;340501;28;83347;-91
2023/03/19 00:17:12;;;;;;;;;;;11.60;98.40;12.10;99446.00;;;;338828;28;89390;-91
2023/03/19 00:17:24;;;;;;;;;;;11.60;98.30;12.00;99447.00;;;;339121;28;83505;-92
2023/03/19 00:17:36;;;;;;;;;;;11.60;98.30;12.20;99445.00;;;;340023;28;91461;-91
2023/03/19 00:17:47;;;;;;;;;;;11.60;98.20;12.20;99438.00;;;;338881;28;82487;-91
2023/03/19 00:17:59;;;;;;;;;;;11.60;98.20;12.10;99443.00;;;;338525;28;90540;-91
2023/03/19 00:18:11;;;;;;;;;;;11.60;98.50;12.00;99445.00;;;;337712;28;82554;-91
2023/03/19 00:18:24;;;;;;;;;;;11.60;98.60;12.00;99437.00;;;;337393;28;89293;-91
2023/03/19 00:18:36;;;;;;;;;;;11.60;98.70;12.00;99448.00;;;;339230;28;83400;-92
2023/03/19 00:18:48;;;;;;;;;;;11.60;98.80;12.00;99438.00;;;;340047;28;89443;-91
2023/03/19 00:19:00;;;;;;;;;;;11.60;99.00;12.10;99444.00;;;;339076;28;83452;-92
2023/03/19 00:19:11;;;;;;;;;;;11.60;99.00;12.00;99439.00;;;;339132;28;88705;-91
2023/03/19 00:19:24;;;;;;;;;;;11.60;99.10;12.00;99442.00;;;;340548;28;83081;-91
2023/03/19 00:19:36;;;;;;;;;;;11.60;99.10;11.90;99449.00;;;;340096;28;88938;-91
2023/03/19 00:19:47;;;;;;;;;;;11.60;99.10;11.90;99451.00;;;;339149;28;83506;-91
2023/03/19 00:19:59;;;;;;;;;;;11.60;99.40;11.90;99447.00;;;;338665;28;91129;-91
2023/03/19 00:20:11;;;;;;;;;;;11.60;99.60;11.90;99444.00;;;;337954;28;83425;-91
2023/03/19 00:20:23;;;;;;;;;;;11.60;99.60;12.00;99443.00;;;;340042;28;90231;-91
2023/03/19 00:20:35;;;;;;;;;;;11.60;99.50;12.10;99447.00;;;;344330;28;82421;-91
2023/03/19 00:20:47;;;;;;;;;;;11.50;99.20;12.00;99444.00;;;;337341;28;91391;-92
2023/03/19 00:20:59;;;;;;;;;;;11.60;99.40;12.00;99438.00;;;;337803;28;83430;-92
2023/03/19 00:21:11;;;;;;;;;;;11.60;99.50;12.10;99440.00;;;;336647;28;88424;-92
2023/03/19 00:21:22;;;;;;;;;;;11.60;99.50;12.10;99452.00;;;;337795;28;83403;-91
2023/03/19 00:21:37;;;;;;;;;;;11.60;99.50;12.20;99452.00;;;;340001;28;89952;-90
2023/03/19 00:21:48;;;;;;;;;;;11.60;99.30;12.20;99446.00;;;;339119;28;83627;-91
2023/03/19 00:22:00;;;;;;;;;;;11.60;99.30;12.20;99449.00;;;;340055;28;89073;-91
2023/03/19 00:22:12;;;;;;;;;;;11.60;99.10;12.20;99451.00;;;;336451;28;83802;-92
2023/03/19 00:22:24;;;;;;;;;;;11.60;98.90;12.10;99446.00;;;;337376;28;88945;-92
2023/03/19 00:22:36;;;;;;;;;;;11.60;99.00;12.10;99438.00;;;;339291;28;83194;-91
2023/03/19 00:22:48;;;;;;;;;;;11.60;99.00;12.00;99440.00;;;;338683;28;92043;-91
2023/03/19 00:23:00;;;;;;;;;;;11.60;99.30;12.00;99441.00;;;;339137;28;82486;-92
2023/03/19 00:23:12;;;;;;;;;;;11.60;99.30;12.10;99453.00;;;;338867;28;87313;-91
2023/03/19 00:23:24;;;;;;;;;;;11.60;99.10;12.00;99446.00;;;;336560;28;83338;-91
2023/03/19 00:23:36;;;;;;;;;;;11.60;99.10;12.00;99445.00;;;;338748;28;87992;-91
2023/03/19 00:23:48;;;;;;;;;;;11.60;99.20;11.90;99451.00;;;;340507;28;82314;-91
2023/03/19 00:24:01;;;;;;;;;;;11.60;99.40;12.00;99446.00;;;;340061;28;88002;-91
2023/03/19 00:24:14;;;;;;;;;;;11.60;99.40;11.90;99451.00;;;;340163;28;82638;-91
2023/03/19 00:24:27;;;;;;;;;;;11.60;99.50;11.90;99447.00;;;;338496;28;91002;-90
2023/03/19 00:24:39;;;;;;;;;;;11.60;99.50;11.90;99457.00;;;;335199;29;82541;-91
2023/03/19 00:24:51;;;;;;;;;;;11.60;99.50;11.80;99448.00;;;;338689;28;92694;-91
2023/03/19 00:25:03;;;;;;;;;;;11.60;99.80;11.80;99452.00;;;;339060;28;83449;-91
2023/03/19 00:25:15;;;;;;;;;;;11.60;99.90;11.80;99456.00;;;;336255;28;88042;-91
2023/03/19 00:25:26;;;;;;;;;;;11.50;99.90;11.80;99452.00;;;;343343;28;83536;-91
2023/03/19 00:25:38;;;;;;;;;;;11.50;99.90;11.80;99454.00;;;;337100;28;87204;-91
2023/03/19 00:25:50;;;;;;;;;;;11.50;99.90;11.80;99459.00;;;;339629;28;85161;-91
2023/03/19 00:26:02;;;;;;;;;;;11.50;99.90;11.80;99447.00;;;;340899;27;89593;-91
2023/03/19 00:26:14;;;;;;;;;;;11.50;99.90;11.90;99456.00;;;;340615;28;82362;-92
2023/03/19 00:26:29;;;;;;;;;;;11.50;99.90;11.90;99460.00;;;;338718;28;91354;-91
2023/03/19 00:26:41;;;;;;;;;;;11.50;99.90;11.80;99458.00;;;;340578;28;83511;-91
2023/03/19 00:26:54;;;;;;;;;;;11.50;99.90;11.80;99452.00;;;;339190;28;88189;-91
2023/03/19 00:27:06;;;;;;;;;;;11.50;99.90;11.80;99453.00;;;;339196;28;82563;-92
2023/03/19 00:27:18;;;;;;;;;;;11.50;99.90;11.80;99455.00;;;;338660;28;89525;-91
2023/03/19 00:27:30;;;;;;;;;;;11.50;99.90;11.80;99459.00;;;;339039;28;83816;-91
2023/03/19 00:27:43;;;;;;;;;;;11.50;99.90;11.80;99462.00;;;;338710;28;88004;-91
2023/03/19 00:27:55;;;;;;;;;;;11.50;99.90;11.70;99457.00;;;;339322;28;83450;-92
2023/03/19 00:28:08;;;;;;;;;;;11.50;99.90;11.70;99460.00;;;;337494;28;90103;-90
2023/03/19 00:28:19;;;;;;;;;;;11.50;99.90;11.70;99458.00;;;;337853;28;83450;-91
2023/03/19 00:28:31;;;;;;;;;;;11.50;99.90;11.70;99456.00;;;;337469;28;89100;-91
2023/03/19 00:28:43;;;;;;;;;;;11.50;99.90;11.70;99468.00;;;;337865;28;83189;-91
2023/03/19 00:28:55;;;;;;;;;;;11.40;99.90;11.80;99459.00;;;;340006;28;89964;-91
2023/03/19 00:29:07;;;;;;;;;;;11.40;99.90;11.70;99457.00;;;;337954;28;82571;-91
2023/03/19 00:29:19;;;;;;;;;;;11.50;99.90;11.70;99462.00;;;;337424;28;89529;-91
2023/03/19 00:29:31;;;;;;;;;;;11.40;99.90;11.90;99468.00;;;;340476;28;82571;-92
2023/03/19 00:29:43;;;;;;;;;;;11.40;99.90;12.00;99465.00;;;;338728;28;89408;-92
2023/03/19 00:29:55;;;;;;;;;;;11.40;99.90;12.00;99466.00;;;;337948;28;82308;-90
2023/03/19 00:30:07;;;;;;;;;;;11.50;99.90;11.90;99465.00;;;;338717;28;89596;-92
2023/03/19 00:30:20;;;;;;;;;;;11.50;99.90;11.80;99462.00;;;;337947;28;83214;-91
2023/03/19 00:30:32;;;;;;;;;;;11.50;99.90;11.80;99464.00;;;;340027;28;91942;-91
2023/03/19 00:30:44;;;;;;;;;;;11.50;99.90;11.80;99468.00;;;;339064;28;83401;-91
2023/03/19 00:30:56;;;;;;;;;;;11.50;99.90;11.80;99468.00;;;;339731;28;91183;-91
2023/03/19 00:31:11;;;;;;;;;;;11.40;99.90;11.70;99468.00;;;;340451;28;83579;-91
2023/03/19 00:31:22;;;;;;;;;;;11.40;99.90;11.70;99464.00;;;;339917;28;90702;-91
2023/03/19 00:31:34;;;;;;;;;;;11.40;99.90;11.70;99475.00;;;;339169;28;82890;-91
2023/03/19 00:31:46;;;;;;;;;;;11.40;99.90;11.70;99471.00;;;;337082;28;91252;-92
2023/03/19 00:31:58;;;;;;;;;;;11.40;99.90;11.70;99466.00;;;;337892;28;83333;-92
2023/03/19 00:32:10;;;;;;;;;;;11.40;99.90;11.80;99468.00;;;;345745;28;89026;-91
2023/03/19 00:32:22;;;;;;;;;;;11.40;99.90;11.80;99476.00;;;;339167;28;83652;-91
2023/03/19 00:32:34;;;;;;;;;;;11.40;99.90;11.80;99468.00;;;;337479;28;88231;-91
2023/03/19 00:32:47;;;;;;;;;;;11.40;99.90;11.80;99470.00;;;;339264;28;83449;-92
2023/03/19 00:33:00;;;;;;;;;;;11.40;99.90;11.90;99468.00;;;;339564;28;90896;-91
2023/03/19 00:33:11;;;;;;;;;;;11.40;99.90;11.80;99471.00;;;;340460;28;83630;-92
2023/03/19 00:33:24;;;;;;;;;;;11.40;99.90;11.80;99463.00;;;;338534;28;89365;-91
2023/03/19 00:33:36;;;;;;;;;;;11.40;99.90;11.80;99471.00;;;;339292;28;82353;-90
2023/03/19 00:33:48;;;;;;;;;;;11.40;99.90;11.90;99471.00;;;;342733;27;90246;-91
2023/03/19 00:34:00;;;;;;;;;;;11.40;99.90;11.90;99473.00;;;;337862;28;83413;-92
2023/03/19 00:34:12;;;;;;;;;;;11.40;99.90;12.00;99474.00;;;;339849;28;91119;-91
2023/03/19 00:34:24;;;;;;;;;;;11.40;99.90;11.90;99482.00;;;;338790;28;83541;-92
2023/03/19 00:34:36;;;;;;;;;;;11.40;99.90;11.80;99476.00;;;;336116;28;89362;-91
2023/03/19 00:34:48;;;;;;;;;;;11.40;99.90;11.80;99468.00;;;;339216;28;83359;-92
2023/03/19 00:35:00;;;;;;;;;;;11.40;99.90;11.70;99475.00;;;;343927;28;91272;-91
2023/03/19 00:35:12;;;;;;;;;;;11.40;99.90;11.70;99474.00;;;;337876;28;83551;-92
2023/03/19 00:35:24;;;;;;;;;;;11.40;99.90;11.60;99469.00;;;;337540;28;87670;-91
2023/03/19 00:35:38;;;;;;;;;;;11.40;99.90;11.60;99476.00;;;;338959;28;82588;-89
2023/03/19 00:35:50;;;;;;;;;;;11.40;99.90;11.60;99479.00;;;;338629;28;90466;-91
2023/03/19 00:36:03;;;;;;;;;;;11.30;99.90;11.60;99485.00;;;;337672;28;83342;-91
2023/03/19 00:36:16;;;;;;;;;;;11.30;99.90;11.50;99483.00;;;;338510;28;90042;-91
2023/03/19 00:36:28;;;;;;;;;;;11.30;99.90;11.50;99487.00;;;;337859;28;83393;-91
2023/03/19 00:36:41;;;;;;;;;;;11.30;99.90;11.60;99485.00;;;;340088;28;89179;-91
2023/03/19 00:36:53;;;;;;;;;;;11.30;99.90;11.60;99477.00;;;;339171;28;83553;-91
2023/03/19 00:37:04;;;;;;;;;;;11.30;99.90;11.60;99483.00;;;;338735;28;89506;-92
2023/03/19 00:37:17;;;;;;;;;;;11.30;99.90;11.60;99478.00;;;;337915;28;83492;-91
2023/03/19 00:37:28;;;;;;;;;;;11.30;99.90;11.60;99485.00;;;;337336;28;90261;-91
2023/03/19 00:37:40;;;;;;;;;;;11.30;99.90;11.60;99484.00;;;;339053;28;83594;-92
2023/03/19 00:37:52;;;;;;;;;;;11.30;99.90;11.50;99484.00;;;;337460;28;89415;-91
2023/03/19 00:38:05;;;;;;;;;;;11.30;99.90;11.50;99487.00;;;;339050;28;83400;-91
2023/03/19 00:38:16;;;;;;;;;;;11.30;99.90;11.50;99481.00;;;;337073;28;89652;-91
2023/03/19 00:38:28;;;;;;;;;;;11.20;99.90;11.50;99487.00;;;;337807;28;82451;-91
2023/03/19 00:38:41;;;;;;;;;;;11.20;99.90;11.60;99482.00;;;;338866;28;88903;-91
2023/03/19 00:38:53;;;;;;;;;;;11.30;99.90;11.80;99483.00;;;;337929;28;83257;-92
2023/03/19 00:39:05;;;;;;;;;;;11.30;99.90;11.70;99491.00;;;;338674;28;89400;-91
2023/03/19 00:39:17;;;;;;;;;;;11.30;99.90;11.70;99489.00;;;;339223;28;83518;-92
2023/03/19 00:39:28;;;;;;;;;;;11.30;99.90;11.60;99485.00;;;;338800;28;88979;-91
2023/03/19 00:39:40;;;;;;;;;;;11.30;99.90;11.60;99486.00;;;;340506;28;83974;-91
2023/03/19 00:39:52;;;;;;;;;;;11.30;99.90;11.60;99494.00;;;;338700;28;89217;-91
2023/03/19 00:40:05;;;;;;;;;;;11.30;99.90;11.60;99489.00;;;;337913;28;82280;-91
2023/03/19 00:40:17;;;;;;;;;;;11.30;99.90;11.60;99487.00;;;;338620;28;90353;-91
2023/03/19 00:40:28;;;;;;;;;;;11.30;99.90;11.60;99482.00;;;;340296;28;83474;-91
2023/03/19 00:40:41;;;;;;;;;;;11.30;99.90;11.60;99489.00;;;;339217;28;90328;-91
2023/03/19 00:40:53;;;;;;;;;;;11.30;99.90;11.50;99489.00;;;;340446;28;83231;-91
2023/03/19 00:41:06;;;;;;;;;;;11.20;99.90;11.50;99489.00;;;;339867;28;92549;-92
2023/03/19 00:41:19;;;;;;;;;;;11.30;99.90;11.60;99486.00;;;;340419;28;82671;-91
2023/03/19 00:41:31;;;;;;;;;;;11.30;99.90;11.60;99487.00;;;;338411;28;91507;-92
2023/03/19 00:41:49;;;;;;;;;;;11.20;99.90;11.60;99488.00;;;;337846;28;83393;-91
2023/03/19 00:42:01;;;;;;;;;;;11.20;99.90;11.60;99487.00;;;;339695;28;90958;-91
2023/03/19 00:42:12;;;;;;;;;;;11.30;99.90;11.60;99489.00;;;;339122;28;83498;-91
2023/03/19 00:42:24;;;;;;;;;;;11.20;99.90;11.60;99487.00;;;;338703;28;89013;-91
2023/03/19 00:42:36;;;;;;;;;;;11.20;99.90;11.60;99488.00;;;;339131;28;83518;-91
2023/03/19 00:42:48;;;;;;;;;;;11.20;99.90;11.60;99479.00;;;;337492;28;90264;-92
2023/03/19 00:43:00;;;;;;;;;;;11.30;99.90;11.80;99490.00;;;;337830;28;83431;-92
2023/03/19 00:43:12;;;;;;;;;;;11.20;99.90;11.80;99492.00;;;;336007;28;90187;-91
2023/03/19 00:43:24;;;;;;;;;;;11.30;99.90;11.80;99480.00;;;;340435;28;82492;-91
2023/03/19 00:43:36;;;;;;;;;;;11.30;99.90;11.80;99490.00;;;;338767;28;89421;-90
2023/03/19 00:43:54;;;;;;;;;;;11.30;99.90;11.70;99491.00;;;;339165;28;84192;-91
2023/03/19 00:44:06;;;;;;;;;;;11.30;99.90;11.70;99483.00;;;;338895;28;86657;-91
2023/03/19 00:44:18;;;;;;;;;;;11.30;99.90;11.70;99491.00;;;;337872;28;83397;-91
2023/03/19 00:44:30;;;;;;;;;;;11.30;99.90;11.70;99481.00;;;;338482;28;91446;-92
2023/03/19 00:44:41;;;;;;;;;;;11.30;99.90;11.70;99486.00;;;;340546;28;83438;-91
2023/03/19 00:44:53;;;;;;;;;;;11.30;99.90;11.60;99491.00;;;;338790;28;90593;-92
2023/03/19 00:45:06;;;;;;;;;;;11.20;99.90;11.60;99486.00;;;;340412;28;83174;-91
2023/03/19 00:45:18;;;;;;;;;;;11.30;99.90;11.60;99486.00;;;;338692;28;90315;-92
2023/03/19 00:45:29;;;;;;;;;;;11.30;99.90;11.70;99489.00;;;;341145;28;83381;-92
2023/03/19 00:45:42;;;;;;;;;;;11.20;99.90;11.60;99481.00;;;;338661;28;91940;-92
2023/03/19 00:45:53;;;;;;;;;;;11.20;99.90;11.60;99480.00;;;;340476;28;83419;-91
2023/03/19 00:46:05;;;;;;;;;;;11.20;99.90;11.60;99484.00;;;;338810;28;88109;-91
2023/03/19 00:46:17;;;;;;;;;;;11.20;99.90;11.60;99482.00;;;;339044;28;82531;-91
2023/03/19 00:46:29;;;;;;;;;;;11.20;99.90;11.60;99483.00;;;;338666;28;90125;-91
2023/03/19 00:46:41;;;;;;;;;;;11.20;99.90;11.60;99472.00;;;;339205;28;82449;-92
2023/03/19 00:46:53;;;;;;;;;;;11.20;99.90;11.70;99483.00;;;;338778;28;91943;-91
2023/03/19 00:47:06;;;;;;;;;;;11.30;99.90;11.60;99488.00;;;;337826;28;83328;-91
2023/03/19 00:47:17;;;;;;;;;;;11.20;99.90;11.60;99479.00;;;;337317;28;92679;-91
2023/03/19 00:47:29;;;;;;;;;;;11.20;99.90;11.60;99483.00;;;;339252;28;82404;-91
2023/03/19 00:47:42;;;;;;;;;;;11.20;99.90;11.70;99482.00;;;;344339;28;91109;-92
2023/03/19 00:47:54;;;;;;;;;;;11.20;99.90;11.60;99478.00;;;;340250;28;82581;-91
2023/03/19 00:48:06;;;;;;;;;;;11.20;99.90;11.60;99478.00;;;;337445;28;88359;-91
2023/03/19 00:48:19;;;;;;;;;;;11.20;99.90;11.60;99475.00;;;;341527;28;82431;-91
2023/03/19 00:48:30;;;;;;;;;;;11.20;99.90;11.60;99476.00;;;;341022;28;90525;-92
2023/03/19 00:48:42;;;;;;;;;;;11.20;99.90;11.60;99479.00;;;;340269;28;83471;-91
2023/03/19 00:48:54;;;;;;;;;;;11.20;99.90;11.60;99477.00;;;;338541;28;89621;-92
2023/03/19 00:49:06;;;;;;;;;;;11.20;99.90;11.50;99483.00;;;;340426;28;82566;-92
2023/03/19 00:49:18;;;;;;;;;;;11.20;99.90;11.50;99478.00;;;;339821;28;90786;-91
2023/03/19 00:49:30;;;;;;;;;;;11.20;99.90;11.40;99483.00;;;;339198;28;83495;-91
2023/03/19 00:49:42;;;;;;;;;;;11.20;99.90;11.50;99491.00;;;;337441;28;90326;-91
2023/03/19 00:49:53;;;;;;;;;;;11.20;99.90;11.60;99478.00;;;;337870;28;83306;-91
2023/03/19 00:50:05;;;;;;;;;;;11.20;99.90;11.80;99480.00;;;;338802;28;90079;-92
2023/03/19 00:50:17;;;;;;;;;;;11.20;99.90;11.80;99483.00;;;;336364;28;83482;-91
2023/03/19 00:50:29;;;;;;;;;;;11.30;99.90;11.80;99476.00;;;;337147;28;90003;-91
2023/03/19 00:50:41;;;;;;;;;;;11.20;99.90;11.80;99471.00;;;;338771;28;82414;-90
2023/03/19 00:50:53;;;;;;;;;;;11.30;99.90;11.80;99481.00;;;;336102;28;91483;-91
2023/03/19 00:51:06;;;;;;;;;;;11.20;99.90;11.70;99481.00;;;;338977;28;83317;-91
2023/03/19 00:51:18;;;;;;;;;;;11.30;99.90;11.70;99473.00;;;;337354;28;89406;-91
2023/03/19 00:51:30;;;;;;;;;;;11.30;99.90;11.60;99474.00;;;;338893;28;83553;-91
2023/03/19 00:51:42;;;;;;;;;;;11.30;99.90;11.60;99479.00;;;;340141;28;89201;-90
2023/03/19 00:51:54;;;;;;;;;;;11.30;99.90;11.60;99475.00;;;;337809;28;83464;-90
2023/03/19 00:52:06;;;;;;;;;;;11.20;99.90;11.60;99476.00;;;;338603;28;90753;-91
2023/03/19 00:52:18;;;;;;;;;;;11.20;99.90;11.50;99477.00;;;;336660;28;82525;-91
2023/03/19 00:52:30;;;;;;;;;;;11.20;99.90;11.70;99479.00;;;;340092;28;90585;-92
2023/03/19 00:52:42;;;;;;;;;;;11.30;99.90;11.70;99475.00;;;;339071;28;83487;-91
2023/03/19 00:52:54;;;;;;;;;;;11.20;99.90;11.60;99475.00;;;;338220;28;88285;-91
2023/03/19 00:53:06;;;;;;;;;;;11.30;99.90;11.60;99479.00;;;;337864;28;83573;-91
2023/03/19 00:53:17;;;;;;;;;;;11.20;99.90;11.70;99472.00;;;;336131;28;90699;-91
2023/03/19 00:53:29;;;;;;;;;;;11.30;99.90;11.70;99486.00;;;;339128;28;83403;-91
2023/03/19 00:53:42;;;;;;;;;;;11.30;99.90;11.70;99479.00;;;;340138;28;86606;-92
2023/03/19 00:53:54;;;;;;;;;;;11.30;99.90;11.70;99484.00;;;;339164;28;82504;-91
2023/03/19 00:54:06;;;;;;;;;;;11.30;99.90;11.70;99473.00;;;;338388;28;90105;-91
2023/03/19 00:54:17;;;;;;;;;;;11.30;99.90;11.80;99479.00;;;;339093;28;83284;-91
2023/03/19 00:54:31;;;;;;;;;;;11.30;99.90;11.80;99466.00;;;;336179;28;88796;-91
2023/03/19 00:54:43;;;;;;;;;;;11.30;99.90;11.80;99476.00;;;;337860;28;82591;-91
2023/03/19 00:54:55;;;;;;;;;;;11.30;99.90;11.80;99469.00;;;;338650;28;90290;-93
2023/03/19 00:55:07;;;;;;;;;;;11.30;99.90;11.80;99481.00;;;;339172;28;82577;-91
2023/03/19 00:55:19;;;;;;;;;;;11.30;99.90;11.70;99477.00;;;;338514;28;91786;-91
2023/03/19 00:55:30;;;;;;;;;;;11.30;99.90;11.80;99477.00;;;;340419;28;83465;-91
2023/03/19 00:55:43;;;;;;;;;;;11.30;99.90;11.80;99472.00;;;;338491;28;89931;-91
2023/03/19 00:55:54;;;;;;;;;;;11.30;99.90;11.80;99477.00;;;;338903;28;83498;-91
2023/03/19 00:56:07;;;;;;;;;;;11.30;99.90;11.70;99469.00;;;;336239;28;88945;-91
2023/03/19 00:56:19;;;;;;;;;;;11.30;99.90;11.60;99476.00;;;;339052;28;83302;-92
2023/03/19 00:56:30;;;;;;;;;;;11.30;99.90;11.60;99479.00;;;;337568;28;88945;-91
2023/03/19 00:56:43;;;;;;;;;;;11.30;99.90;11.70;99473.00;;;;340416;28;83572;-92
2023/03/19 00:56:55;;;;;;;;;;;11.30;99.90;11.80;99469.00;;;;340098;28;89594;-91
2023/03/19 00:57:07;;;;;;;;;;;11.30;99.90;11.70;99476.00;;;;340429;28;83504;-91
2023/03/19 00:57:19;;;;;;;;;;;11.30;99.90;11.70;99473.00;;;;337333;28;88963;-91
2023/03/19 00:57:31;;;;;;;;;;;11.30;99.90;11.70;99474.00;;;;337758;28;83504;-91
2023/03/19 00:57:43;;;;;;;;;;;11.30;99.90;11.80;99468.00;;;;337399;28;90205;-90
2023/03/19 00:57:54;;;;;;;;;;;11.30;99.90;11.80;99472.00;;;;340274;28;83496;-91
2023/03/19 00:58:06;;;;;;;;;;;11.30;99.90;11.80;99469.00;;;;336222;28;88190;-91
2023/03/19 00:58:18;;;;;;;;;;;11.30;99.90;11.80;99471.00;;;;339090;28;83471;-91
2023/03/19 00:58:30;;;;;;;;;;;11.30;99.90;11.70;99469.00;;;;339994;28;89832;-91
2023/03/19 00:58:42;;;;;;;;;;;11.30;99.90;11.80;99468.00;;;;339246;28;82423;-92
2023/03/19 00:58:55;;;;;;;;;;;11.30;99.90;11.80;99461.00;;;;338874;28;87953;-91
2023/03/19 00:59:07;;;;;;;;;;;11.30;99.90;11.80;99468.00;;;;338978;28;82559;-91
2023/03/19 00:59:19;;;;;;;;;;;11.30;99.90;11.70;99471.00;;;;337284;28;91544;-90
2023/03/19 00:59:31;;;;;;;;;;;11.40;99.90;11.80;99478.00;;;;338942;28;83554;-91
2023/03/19 00:59:43;;;;;;;;;;;11.40;99.90;11.90;99471.00;;;;338626;28;89465;-91
2023/03/19 00:59:55;;;;;;;;;;;11.40;99.90;11.80;99469.00;;;;337968;28;83190;-90
2023/03/19 01:00:07;;;;;;;;;;;11.40;99.90;11.80;99472.00;;;;338814;28;90493;-90
2023/03/19 01:00:19;;;;;;;;;;;11.40;99.90;11.70;99468.00;;;;336604;28;83465;-90